sensor_id;sensor_type;location;lat;lon;timestamp;temperature;humidity
14769;DHT22;7476;49.404;11.152;2023-11-22T00:02:08;4.50;50.80
14769;DHT22;7476;49.404;11.152;2023-11-22T00:04:34;4.50;54.80
14769;DHT22;7476;49.404;11.152;2023-11-22T00:07:02;4.50;46.80
14769;DHT22;7476;49.404;11.152;2023-11-22T00:09:29;4.50;38.90
14769;DHT22;7476;49.404;11.152;2023-11-22T00:11:56;4.40;55.60
14769;DHT22;7476;49.404;11.152;2023-11-22T00:14:22;4.50;7.20
14769;DHT22;7476;49.404;11.152;2023-11-22T00:16:49;4.40;44.50
14769;DHT22;7476;49.404;11.152;2023-11-22T00:19:16;4.40;29.90
14769;DHT22;7476;49.404;11.152;2023-11-22T00:21:47;4.40;1.00
14769;DHT22;7476;49.404;11.152;2023-11-22T00:24:15;4.40;1.00
14769;DHT22;7476;49.404;11.152;2023-11-22T00:26:44;4.40;1.00
14769;DHT22;7476;49.404;11.152;2023-11-22T00:29:11;4.40;1.00
14769;DHT22;7476;49.404;11.152;2023-11-22T00:31:37;4.30;1.00
14769;DHT22;7476;49.404;11.152;2023-11-22T00:34:04;4.40;1.00
14769;DHT22;7476;49.404;11.152;2023-11-22T00:36:32;4.30;1.00
14769;DHT22;7476;49.404;11.152;2023-11-22T00:38:59;4.30;1.00
14769;DHT22;7476;49.404;11.152;2023-11-22T00:41:31;4.30;1.00
14769;DHT22;7476;49.404;11.152;2023-11-22T00:43:58;4.30;1.00
14769;DHT22;7476;49.404;11.152;2023-11-22T00:46:24;4.30;1.00
14769;DHT22;7476;49.404;11.152;2023-11-22T00:48:51;4.20;1.00
14769;DHT22;7476;49.404;11.152;2023-11-22T00:51:18;4.20;1.00
14769;DHT22;7476;49.404;11.152;2023-11-22T00:53:45;4.20;1.00
14769;DHT22;7476;49.404;11.152;2023-11-22T00:56:11;4.20;1.00
14769;DHT22;7476;49.404;11.152;2023-11-22T00:58:39;4.20;1.00
14769;DHT22;7476;49.404;11.152;2023-11-22T01:01:06;4.10;1.00
14769;DHT22;7476;49.404;11.152;2023-11-22T01:03:33;4.10;1.00
14769;DHT22;7476;49.404;11.152;2023-11-22T01:06:00;4.10;1.00
14769;DHT22;7476;49.404;11.152;2023-11-22T01:08:27;4.10;1.00
14769;DHT22;7476;49.404;11.152;2023-11-22T01:10:54;4.10;1.00
14769;DHT22;7476;49.404;11.152;2023-11-22T01:13:22;4.10;1.00
14769;DHT22;7476;49.404;11.152;2023-11-22T01:15:50;4.10;1.00
14769;DHT22;7476;49.404;11.152;2023-11-22T01:18:17;4.00;1.00
14769;DHT22;7476;49.404;11.152;2023-11-22T01:20:44;4.00;1.00
14769;DHT22;7476;49.404;11.152;2023-11-22T01:23:11;4.00;1.00
14769;DHT22;7476;49.404;11.152;2023-11-22T01:25:38;3.90;1.00
14769;DHT22;7476;49.404;11.152;2023-11-22T01:28:04;3.80;1.00
14769;DHT22;7476;49.404;11.152;2023-11-22T01:30:32;3.70;1.00
14769;DHT22;7476;49.404;11.152;2023-11-22T01:33:00;3.70;1.00
14769;DHT22;7476;49.404;11.152;2023-11-22T01:35:27;3.60;1.00
14769;DHT22;7476;49.404;11.152;2023-11-22T01:37:54;3.50;1.00
14769;DHT22;7476;49.404;11.152;2023-11-22T01:40:21;3.50;1.00
14769;DHT22;7476;49.404;11.152;2023-11-22T01:42:49;3.50;1.00
14769;DHT22;7476;49.404;11.152;2023-11-22T01:45:15;3.40;1.00
14769;DHT22;7476;49.404;11.152;2023-11-22T01:47:43;3.40;1.00
14769;DHT22;7476;49.404;11.152;2023-11-22T01:50:12;3.40;1.00
14769;DHT22;7476;49.404;11.152;2023-11-22T01:52:40;3.40;1.00
14769;DHT22;7476;49.404;11.152;2023-11-22T01:55:08;3.30;1.00
14769;DHT22;7476;49.404;11.152;2023-11-22T01:57:35;3.30;1.00
14769;DHT22;7476;49.404;11.152;2023-11-22T02:00:03;3.30;1.00
14769;DHT22;7476;49.404;11.152;2023-11-22T02:02:33;3.30;1.00
14769;DHT22;7476;49.404;11.152;2023-11-22T02:05:00;3.20;1.00
14769;DHT22;7476;49.404;11.152;2023-11-22T02:07:28;3.20;1.00
14769;DHT22;7476;49.404;11.152;2023-11-22T02:09:57;3.20;1.00
14769;DHT22;7476;49.404;11.152;2023-11-22T02:12:24;3.10;1.00
14769;DHT22;7476;49.404;11.152;2023-11-22T02:14:50;3.10;1.00
14769;DHT22;7476;49.404;11.152;2023-11-22T02:17:17;3.10;1.00
14769;DHT22;7476;49.404;11.152;2023-11-22T02:19:44;3.10;1.00
14769;DHT22;7476;49.404;11.152;2023-11-22T02:22:10;3.10;1.00
14769;DHT22;7476;49.404;11.152;2023-11-22T02:24:38;3.00;1.00
14769;DHT22;7476;49.404;11.152;2023-11-22T02:27:05;3.00;1.00
14769;DHT22;7476;49.404;11.152;2023-11-22T02:29:35;3.00;1.00
14769;DHT22;7476;49.404;11.152;2023-11-22T02:32:02;3.00;1.00
14769;DHT22;7476;49.404;11.152;2023-11-22T02:34:29;2.90;1.00
14769;DHT22;7476;49.404;11.152;2023-11-22T02:36:56;2.90;1.00
14769;DHT22;7476;49.404;11.152;2023-11-22T02:39:25;2.80;1.00
14769;DHT22;7476;49.404;11.152;2023-11-22T02:41:56;2.80;1.00
14769;DHT22;7476;49.404;11.152;2023-11-22T02:44:24;2.70;1.00
14769;DHT22;7476;49.404;11.152;2023-11-22T02:46:50;2.70;1.00
14769;DHT22;7476;49.404;11.152;2023-11-22T02:49:18;2.60;1.00
14769;DHT22;7476;49.404;11.152;2023-11-22T02:51:45;2.60;1.00
14769;DHT22;7476;49.404;11.152;2023-11-22T02:54:12;2.50;1.00
14769;DHT22;7476;49.404;11.152;2023-11-22T02:56:39;2.50;1.00
14769;DHT22;7476;49.404;11.152;2023-11-22T02:59:07;2.50;1.00
14769;DHT22;7476;49.404;11.152;2023-11-22T03:01:38;2.50;1.00
14769;DHT22;7476;49.404;11.152;2023-11-22T03:04:08;2.50;1.00
14769;DHT22;7476;49.404;11.152;2023-11-22T03:06:34;2.50;1.00
14769;DHT22;7476;49.404;11.152;2023-11-22T03:09:01;2.40;1.00
14769;DHT22;7476;49.404;11.152;2023-11-22T03:11:29;2.40;1.00
14769;DHT22;7476;49.404;11.152;2023-11-22T03:13:57;2.40;1.00
14769;DHT22;7476;49.404;11.152;2023-11-22T03:16:25;2.40;1.00
14769;DHT22;7476;49.404;11.152;2023-11-22T03:18:52;2.40;1.00
14769;DHT22;7476;49.404;11.152;2023-11-22T03:21:19;2.40;1.00
14769;DHT22;7476;49.404;11.152;2023-11-22T03:23:46;2.40;1.00
14769;DHT22;7476;49.404;11.152;2023-11-22T03:26:13;2.40;1.00
14769;DHT22;7476;49.404;11.152;2023-11-22T03:28:39;2.40;1.00
14769;DHT22;7476;49.404;11.152;2023-11-22T03:31:06;2.50;1.00
14769;DHT22;7476;49.404;11.152;2023-11-22T03:33:34;2.50;1.00
14769;DHT22;7476;49.404;11.152;2023-11-22T03:36:01;2.50;1.00
14769;DHT22;7476;49.404;11.152;2023-11-22T03:38:28;2.50;1.00
14769;DHT22;7476;49.404;11.152;2023-11-22T03:40:55;2.40;1.00
14769;DHT22;7476;49.404;11.152;2023-11-22T03:43:22;2.50;1.00
14769;DHT22;7476;49.404;11.152;2023-11-22T03:45:48;2.50;1.00
14769;DHT22;7476;49.404;11.152;2023-11-22T03:48:15;2.50;1.00
14769;DHT22;7476;49.404;11.152;2023-11-22T03:50:44;2.50;1.00
14769;DHT22;7476;49.404;11.152;2023-11-22T03:53:10;2.50;1.00
14769;DHT22;7476;49.404;11.152;2023-11-22T03:55:37;2.50;1.00
14769;DHT22;7476;49.404;11.152;2023-11-22T03:58:04;2.50;1.00
14769;DHT22;7476;49.404;11.152;2023-11-22T04:00:31;2.50;1.00
14769;DHT22;7476;49.404;11.152;2023-11-22T04:02:58;2.50;1.00
14769;DHT22;7476;49.404;11.152;2023-11-22T04:05:27;2.50;1.00
14769;DHT22;7476;49.404;11.152;2023-11-22T04:07:55;2.50;1.00
14769;DHT22;7476;49.404;11.152;2023-11-22T04:10:22;2.50;1.00
14769;DHT22;7476;49.404;11.152;2023-11-22T04:12:49;2.60;1.00
14769;DHT22;7476;49.404;11.152;2023-11-22T04:15:16;2.60;1.00
14769;DHT22;7476;49.404;11.152;2023-11-22T04:17:42;2.60;1.00
14769;DHT22;7476;49.404;11.152;2023-11-22T04:20:10;2.50;1.00
14769;DHT22;7476;49.404;11.152;2023-11-22T04:22:40;2.50;1.00
14769;DHT22;7476;49.404;11.152;2023-11-22T04:25:08;2.50;1.00
14769;DHT22;7476;49.404;11.152;2023-11-22T04:27:35;2.30;1.00
14769;DHT22;7476;49.404;11.152;2023-11-22T04:30:02;2.20;1.00
14769;DHT22;7476;49.404;11.152;2023-11-22T04:32:29;2.10;1.00
14769;DHT22;7476;49.404;11.152;2023-11-22T04:34:55;1.90;1.00
14769;DHT22;7476;49.404;11.152;2023-11-22T04:37:24;1.80;1.00
14769;DHT22;7476;49.404;11.152;2023-11-22T04:39:52;1.70;1.00
14769;DHT22;7476;49.404;11.152;2023-11-22T04:42:20;1.70;1.00
14769;DHT22;7476;49.404;11.152;2023-11-22T04:44:46;1.50;9.90
14769;DHT22;7476;49.404;11.152;2023-11-22T04:47:13;1.40;38.80
14769;DHT22;7476;49.404;11.152;2023-11-22T04:49:40;1.30;50.60
14769;DHT22;7476;49.404;11.152;2023-11-22T04:52:06;1.00;99.90
14769;DHT22;7476;49.404;11.152;2023-11-22T04:54:33;1.10;99.90
14769;DHT22;7476;49.404;11.152;2023-11-22T04:57:00;1.30;99.90
14769;DHT22;7476;49.404;11.152;2023-11-22T04:59:28;1.30;95.60
14769;DHT22;7476;49.404;11.152;2023-11-22T05:01:54;1.30;99.90
14769;DHT22;7476;49.404;11.152;2023-11-22T05:04:21;1.30;99.90
14769;DHT22;7476;49.404;11.152;2023-11-22T05:06:48;1.30;99.90
14769;DHT22;7476;49.404;11.152;2023-11-22T05:09:14;1.30;99.90
14769;DHT22;7476;49.404;11.152;2023-11-22T05:11:43;1.30;99.90
14769;DHT22;7476;49.404;11.152;2023-11-22T05:14:10;1.30;99.90
14769;DHT22;7476;49.404;11.152;2023-11-22T05:16:38;1.40;99.90
14769;DHT22;7476;49.404;11.152;2023-11-22T05:19:05;1.60;99.90
14769;DHT22;7476;49.404;11.152;2023-11-22T05:21:32;1.70;73.10
14769;DHT22;7476;49.404;11.152;2023-11-22T05:23:58;1.80;45.60
14769;DHT22;7476;49.404;11.152;2023-11-22T05:26:25;1.80;7.40
14769;DHT22;7476;49.404;11.152;2023-11-22T05:28:52;1.90;12.80
14769;DHT22;7476;49.404;11.152;2023-11-22T05:31:19;1.90;9.20
14769;DHT22;7476;49.404;11.152;2023-11-22T05:33:48;2.00;1.00
14769;DHT22;7476;49.404;11.152;2023-11-22T05:36:14;2.00;1.00
14769;DHT22;7476;49.404;11.152;2023-11-22T05:38:42;2.00;1.00
14769;DHT22;7476;49.404;11.152;2023-11-22T05:41:09;2.00;1.00
14769;DHT22;7476;49.404;11.152;2023-11-22T05:43:35;2.10;1.00
14769;DHT22;7476;49.404;11.152;2023-11-22T05:46:03;2.10;1.00
14769;DHT22;7476;49.404;11.152;2023-11-22T05:48:29;2.20;1.00
14769;DHT22;7476;49.404;11.152;2023-11-22T05:50:57;2.20;1.00
14769;DHT22;7476;49.404;11.152;2023-11-22T05:53:24;2.20;1.00
14769;DHT22;7476;49.404;11.152;2023-11-22T05:55:51;2.20;1.00
14769;DHT22;7476;49.404;11.152;2023-11-22T05:58:19;2.20;1.00
14769;DHT22;7476;49.404;11.152;2023-11-22T06:00:47;2.20;1.00
14769;DHT22;7476;49.404;11.152;2023-11-22T06:03:13;2.20;1.00
14769;DHT22;7476;49.404;11.152;2023-11-22T06:05:40;2.20;1.00
14769;DHT22;7476;49.404;11.152;2023-11-22T06:08:08;2.10;1.00
14769;DHT22;7476;49.404;11.152;2023-11-22T06:10:35;2.10;1.00
14769;DHT22;7476;49.404;11.152;2023-11-22T06:13:03;2.10;1.00
14769;DHT22;7476;49.404;11.152;2023-11-22T06:15:30;2.10;1.00
14769;DHT22;7476;49.404;11.152;2023-11-22T06:17:56;2.10;1.00
14769;DHT22;7476;49.404;11.152;2023-11-22T06:20:23;2.10;1.00
14769;DHT22;7476;49.404;11.152;2023-11-22T06:22:52;2.10;1.00
14769;DHT22;7476;49.404;11.152;2023-11-22T06:25:20;2.10;1.00
14769;DHT22;7476;49.404;11.152;2023-11-22T06:27:47;2.10;1.00
14769;DHT22;7476;49.404;11.152;2023-11-22T06:30:14;2.10;1.00
14769;DHT22;7476;49.404;11.152;2023-11-22T06:32:40;2.10;1.00
14769;DHT22;7476;49.404;11.152;2023-11-22T06:35:09;2.10;1.00
14769;DHT22;7476;49.404;11.152;2023-11-22T06:37:37;2.00;1.00
14769;DHT22;7476;49.404;11.152;2023-11-22T06:40:04;2.10;1.00
14769;DHT22;7476;49.404;11.152;2023-11-22T06:42:33;2.00;1.00
14769;DHT22;7476;49.404;11.152;2023-11-22T06:45:00;2.00;1.00
14769;DHT22;7476;49.404;11.152;2023-11-22T06:47:27;2.00;1.00
14769;DHT22;7476;49.404;11.152;2023-11-22T06:49:54;2.10;1.00
14769;DHT22;7476;49.404;11.152;2023-11-22T06:52:20;2.10;1.00
14769;DHT22;7476;49.404;11.152;2023-11-22T06:54:47;2.00;1.00
14769;DHT22;7476;49.404;11.152;2023-11-22T06:57:14;2.10;1.00
14769;DHT22;7476;49.404;11.152;2023-11-22T06:59:42;2.00;1.00
14769;DHT22;7476;49.404;11.152;2023-11-22T07:02:08;2.00;1.00
14769;DHT22;7476;49.404;11.152;2023-11-22T07:04:35;2.00;1.00
14769;DHT22;7476;49.404;11.152;2023-11-22T07:07:02;2.10;1.00
14769;DHT22;7476;49.404;11.152;2023-11-22T07:09:29;2.00;1.00
14769;DHT22;7476;49.404;11.152;2023-11-22T07:11:56;2.00;1.00
14769;DHT22;7476;49.404;11.152;2023-11-22T07:14:24;2.00;1.00
14769;DHT22;7476;49.404;11.152;2023-11-22T07:16:53;2.00;1.00
14769;DHT22;7476;49.404;11.152;2023-11-22T07:19:21;2.00;1.00
14769;DHT22;7476;49.404;11.152;2023-11-22T07:21:47;2.00;1.00
14769;DHT22;7476;49.404;11.152;2023-11-22T07:24:14;2.00;1.00
14769;DHT22;7476;49.404;11.152;2023-11-22T07:26:41;2.00;1.00
14769;DHT22;7476;49.404;11.152;2023-11-22T07:29:08;2.00;1.00
14769;DHT22;7476;49.404;11.152;2023-11-22T07:31:37;2.00;1.00
14769;DHT22;7476;49.404;11.152;2023-11-22T07:34:05;2.10;1.00
14769;DHT22;7476;49.404;11.152;2023-11-22T07:36:34;2.10;1.00
14769;DHT22;7476;49.404;11.152;2023-11-22T07:39:03;2.10;1.00
14769;DHT22;7476;49.404;11.152;2023-11-22T07:41:30;2.10;1.00
14769;DHT22;7476;49.404;11.152;2023-11-22T07:43:57;2.10;1.00
14769;DHT22;7476;49.404;11.152;2023-11-22T07:46:23;2.20;1.00
14769;DHT22;7476;49.404;11.152;2023-11-22T07:48:51;2.10;1.00
14769;DHT22;7476;49.404;11.152;2023-11-22T07:51:19;2.10;1.00
14769;DHT22;7476;49.404;11.152;2023-11-22T07:53:46;2.20;1.00
14769;DHT22;7476;49.404;11.152;2023-11-22T07:56:12;2.20;1.00
14769;DHT22;7476;49.404;11.152;2023-11-22T07:58:39;2.10;1.00
14769;DHT22;7476;49.404;11.152;2023-11-22T08:01:06;2.10;1.00
14769;DHT22;7476;49.404;11.152;2023-11-22T08:03:39;2.10;1.00
14769;DHT22;7476;49.404;11.152;2023-11-22T08:06:09;2.20;1.00
14769;DHT22;7476;49.404;11.152;2023-11-22T08:08:37;2.10;1.00
14769;DHT22;7476;49.404;11.152;2023-11-22T08:11:05;2.20;1.00
14769;DHT22;7476;49.404;11.152;2023-11-22T08:13:40;2.20;1.00
14769;DHT22;7476;49.404;11.152;2023-11-22T08:16:06;2.20;1.00
14769;DHT22;7476;49.404;11.152;2023-11-22T08:18:33;2.30;1.00
14769;DHT22;7476;49.404;11.152;2023-11-22T08:21:01;2.30;1.00
14769;DHT22;7476;49.404;11.152;2023-11-22T08:23:27;2.30;1.00
14769;DHT22;7476;49.404;11.152;2023-11-22T08:25:57;2.30;1.00
14769;DHT22;7476;49.404;11.152;2023-11-22T08:28:24;2.40;1.00
14769;DHT22;7476;49.404;11.152;2023-11-22T08:30:51;2.30;1.00
14769;DHT22;7476;49.404;11.152;2023-11-22T08:33:18;2.40;1.00
14769;DHT22;7476;49.404;11.152;2023-11-22T08:35:45;2.40;1.00
14769;DHT22;7476;49.404;11.152;2023-11-22T08:38:16;2.50;1.00
14769;DHT22;7476;49.404;11.152;2023-11-22T08:40:43;2.60;1.00
14769;DHT22;7476;49.404;11.152;2023-11-22T08:43:11;2.60;1.00
14769;DHT22;7476;49.404;11.152;2023-11-22T08:45:38;2.40;1.00
14769;DHT22;7476;49.404;11.152;2023-11-22T08:48:05;2.40;1.00
14769;DHT22;7476;49.404;11.152;2023-11-22T08:50:31;2.50;1.00
14769;DHT22;7476;49.404;11.152;2023-11-22T08:52:58;2.50;1.00
14769;DHT22;7476;49.404;11.152;2023-11-22T08:55:26;2.60;1.00
14769;DHT22;7476;49.404;11.152;2023-11-22T08:57:52;2.60;1.00
14769;DHT22;7476;49.404;11.152;2023-11-22T09:00:21;2.50;1.00
14769;DHT22;7476;49.404;11.152;2023-11-22T09:02:48;2.60;1.00
14769;DHT22;7476;49.404;11.152;2023-11-22T09:05:15;2.70;1.00
14769;DHT22;7476;49.404;11.152;2023-11-22T09:07:42;2.60;1.00
14769;DHT22;7476;49.404;11.152;2023-11-22T09:10:10;2.70;1.00
14769;DHT22;7476;49.404;11.152;2023-11-22T09:12:39;2.60;1.00
14769;DHT22;7476;49.404;11.152;2023-11-22T09:15:06;2.60;1.00
14769;DHT22;7476;49.404;11.152;2023-11-22T09:17:37;2.60;1.00
14769;DHT22;7476;49.404;11.152;2023-11-22T09:20:08;2.60;1.00
14769;DHT22;7476;49.404;11.152;2023-11-22T09:22:36;2.60;1.00
14769;DHT22;7476;49.404;11.152;2023-11-22T09:25:05;2.60;1.00
14769;DHT22;7476;49.404;11.152;2023-11-22T09:27:34;2.60;1.00
14769;DHT22;7476;49.404;11.152;2023-11-22T09:30:03;2.50;1.00
14769;DHT22;7476;49.404;11.152;2023-11-22T09:32:30;2.50;1.00
14769;DHT22;7476;49.404;11.152;2023-11-22T09:34:58;2.50;1.00
14769;DHT22;7476;49.404;11.152;2023-11-22T09:37:25;2.50;1.00
14769;DHT22;7476;49.404;11.152;2023-11-22T09:39:51;2.40;1.00
14769;DHT22;7476;49.404;11.152;2023-11-22T09:42:18;2.40;1.00
14769;DHT22;7476;49.404;11.152;2023-11-22T09:44:46;2.40;1.00
14769;DHT22;7476;49.404;11.152;2023-11-22T09:47:13;2.40;1.00
14769;DHT22;7476;49.404;11.152;2023-11-22T09:49:45;2.40;1.00
14769;DHT22;7476;49.404;11.152;2023-11-22T09:52:19;2.30;1.00
14769;DHT22;7476;49.404;11.152;2023-11-22T09:54:47;2.40;1.00
14769;DHT22;7476;49.404;11.152;2023-11-22T09:57:17;2.40;1.00
14769;DHT22;7476;49.404;11.152;2023-11-22T09:59:47;2.40;1.00
14769;DHT22;7476;49.404;11.152;2023-11-22T10:02:17;2.30;1.00
14769;DHT22;7476;49.404;11.152;2023-11-22T10:04:45;2.30;1.00
14769;DHT22;7476;49.404;11.152;2023-11-22T10:07:16;2.40;1.00
14769;DHT22;7476;49.404;11.152;2023-11-22T10:09:43;2.50;1.00
14769;DHT22;7476;49.404;11.152;2023-11-22T10:12:12;2.40;1.00
14769;DHT22;7476;49.404;11.152;2023-11-22T10:14:40;2.50;1.00
14769;DHT22;7476;49.404;11.152;2023-11-22T10:17:07;2.60;1.00
14769;DHT22;7476;49.404;11.152;2023-11-22T10:19:35;2.60;1.00
14769;DHT22;7476;49.404;11.152;2023-11-22T10:22:03;2.60;1.00
14769;DHT22;7476;49.404;11.152;2023-11-22T10:24:32;2.60;1.00
14769;DHT22;7476;49.404;11.152;2023-11-22T10:27:00;2.60;1.00
14769;DHT22;7476;49.404;11.152;2023-11-22T10:29:27;2.50;1.00
14769;DHT22;7476;49.404;11.152;2023-11-22T10:31:54;2.50;1.00
14769;DHT22;7476;49.404;11.152;2023-11-22T10:34:23;2.50;1.00
14769;DHT22;7476;49.404;11.152;2023-11-22T10:36:50;2.70;1.00
14769;DHT22;7476;49.404;11.152;2023-11-22T10:39:19;2.80;1.00
14769;DHT22;7476;49.404;11.152;2023-11-22T10:41:47;2.70;1.00
14769;DHT22;7476;49.404;11.152;2023-11-22T10:44:16;2.70;1.00
14769;DHT22;7476;49.404;11.152;2023-11-22T10:46:47;2.90;1.00
14769;DHT22;7476;49.404;11.152;2023-11-22T10:49:14;3.00;1.00
14769;DHT22;7476;49.404;11.152;2023-11-22T10:51:40;3.10;1.00
14769;DHT22;7476;49.404;11.152;2023-11-22T10:54:07;3.20;1.00
14769;DHT22;7476;49.404;11.152;2023-11-22T10:56:38;3.30;1.00
14769;DHT22;7476;49.404;11.152;2023-11-22T10:59:10;3.30;1.00
14769;DHT22;7476;49.404;11.152;2023-11-22T11:01:43;3.20;1.00
14769;DHT22;7476;49.404;11.152;2023-11-22T11:04:18;3.00;1.00
14769;DHT22;7476;49.404;11.152;2023-11-22T11:06:48;2.80;1.00
14769;DHT22;7476;49.404;11.152;2023-11-22T11:09:18;2.80;1.00
14769;DHT22;7476;49.404;11.152;2023-11-22T11:11:47;2.80;1.00
14769;DHT22;7476;49.404;11.152;2023-11-22T11:14:16;2.90;1.00
14769;DHT22;7476;49.404;11.152;2023-11-22T11:16:43;2.90;1.00
14769;DHT22;7476;49.404;11.152;2023-11-22T11:19:15;2.90;1.00
14769;DHT22;7476;49.404;11.152;2023-11-22T11:21:43;2.90;1.00
14769;DHT22;7476;49.404;11.152;2023-11-22T11:24:09;2.80;1.00
14769;DHT22;7476;49.404;11.152;2023-11-22T11:26:37;2.80;1.00
14769;DHT22;7476;49.404;11.152;2023-11-22T11:29:04;2.80;1.00
14769;DHT22;7476;49.404;11.152;2023-11-22T11:31:38;2.80;1.00
14769;DHT22;7476;49.404;11.152;2023-11-22T11:34:07;2.70;1.00
14769;DHT22;7476;49.404;11.152;2023-11-22T11:36:37;2.80;1.00
14769;DHT22;7476;49.404;11.152;2023-11-22T11:39:06;2.80;1.00
14769;DHT22;7476;49.404;11.152;2023-11-22T11:41:34;2.80;1.00
14769;DHT22;7476;49.404;11.152;2023-11-22T11:44:03;3.00;1.00
14769;DHT22;7476;49.404;11.152;2023-11-22T11:46:30;3.20;1.00
14769;DHT22;7476;49.404;11.152;2023-11-22T11:48:59;3.20;1.00
14769;DHT22;7476;49.404;11.152;2023-11-22T11:51:29;3.20;1.00
14769;DHT22;7476;49.404;11.152;2023-11-22T11:53:56;3.30;1.00
14769;DHT22;7476;49.404;11.152;2023-11-22T11:56:23;3.20;1.00
14769;DHT22;7476;49.404;11.152;2023-11-22T11:58:53;3.20;1.00
14769;DHT22;7476;49.404;11.152;2023-11-22T12:01:20;3.20;1.00
14769;DHT22;7476;49.404;11.152;2023-11-22T12:03:47;3.20;1.00
14769;DHT22;7476;49.404;11.152;2023-11-22T12:06:16;3.30;1.00
14769;DHT22;7476;49.404;11.152;2023-11-22T12:08:43;3.40;1.00
14769;DHT22;7476;49.404;11.152;2023-11-22T12:11:10;3.50;1.00
14769;DHT22;7476;49.404;11.152;2023-11-22T12:13:37;3.40;1.00
14769;DHT22;7476;49.404;11.152;2023-11-22T12:16:05;3.30;1.00
14769;DHT22;7476;49.404;11.152;2023-11-22T12:18:39;3.00;1.00
14769;DHT22;7476;49.404;11.152;2023-11-22T12:21:06;3.00;1.00
14769;DHT22;7476;49.404;11.152;2023-11-22T12:23:34;3.10;1.00
14769;DHT22;7476;49.404;11.152;2023-11-22T12:26:02;2.90;1.00
14769;DHT22;7476;49.404;11.152;2023-11-22T12:28:30;2.90;1.00
14769;DHT22;7476;49.404;11.152;2023-11-22T12:31:06;2.90;1.00
14769;DHT22;7476;49.404;11.152;2023-11-22T12:33:35;3.00;1.00
14769;DHT22;7476;49.404;11.152;2023-11-22T12:36:01;3.00;1.00
14769;DHT22;7476;49.404;11.152;2023-11-22T12:38:29;2.90;1.00
14769;DHT22;7476;49.404;11.152;2023-11-22T12:40:58;2.90;1.00
14769;DHT22;7476;49.404;11.152;2023-11-22T12:43:28;3.00;1.00
14769;DHT22;7476;49.404;11.152;2023-11-22T12:45:59;3.10;1.00
14769;DHT22;7476;49.404;11.152;2023-11-22T12:48:26;3.10;1.00
14769;DHT22;7476;49.404;11.152;2023-11-22T12:50:55;3.10;1.00
14769;DHT22;7476;49.404;11.152;2023-11-22T12:53:23;3.00;1.00
14769;DHT22;7476;49.404;11.152;2023-11-22T12:55:53;2.90;1.00
14769;DHT22;7476;49.404;11.152;2023-11-22T12:58:23;2.80;1.00
14769;DHT22;7476;49.404;11.152;2023-11-22T13:00:51;2.80;1.00
14769;DHT22;7476;49.404;11.152;2023-11-22T13:03:23;2.80;1.00
14769;DHT22;7476;49.404;11.152;2023-11-22T13:05:50;2.80;1.00
14769;DHT22;7476;49.404;11.152;2023-11-22T13:08:19;2.80;1.00
14769;DHT22;7476;49.404;11.152;2023-11-22T13:10:48;2.90;1.00
14769;DHT22;7476;49.404;11.152;2023-11-22T13:13:19;3.00;1.00
14769;DHT22;7476;49.404;11.152;2023-11-22T13:15:47;3.00;1.00
14769;DHT22;7476;49.404;11.152;2023-11-22T13:18:14;3.00;1.00
14769;DHT22;7476;49.404;11.152;2023-11-22T13:20:42;3.00;1.00
14769;DHT22;7476;49.404;11.152;2023-11-22T13:23:09;3.10;1.00
14769;DHT22;7476;49.404;11.152;2023-11-22T13:25:36;3.20;1.00
14769;DHT22;7476;49.404;11.152;2023-11-22T13:28:03;3.10;1.00
14769;DHT22;7476;49.404;11.152;2023-11-22T13:30:30;2.90;1.00
14769;DHT22;7476;49.404;11.152;2023-11-22T13:32:58;2.90;1.00
14769;DHT22;7476;49.404;11.152;2023-11-22T13:35:25;3.00;1.00
14769;DHT22;7476;49.404;11.152;2023-11-22T13:37:56;3.10;1.00
14769;DHT22;7476;49.404;11.152;2023-11-22T13:40:23;3.10;1.00
14769;DHT22;7476;49.404;11.152;2023-11-22T13:42:52;3.10;1.00
14769;DHT22;7476;49.404;11.152;2023-11-22T13:45:20;3.00;1.00
14769;DHT22;7476;49.404;11.152;2023-11-22T13:47:47;3.00;1.00
14769;DHT22;7476;49.404;11.152;2023-11-22T13:50:16;3.00;1.00
14769;DHT22;7476;49.404;11.152;2023-11-22T13:52:44;3.00;1.00
14769;DHT22;7476;49.404;11.152;2023-11-22T13:55:12;3.10;1.00
14769;DHT22;7476;49.404;11.152;2023-11-22T13:57:39;3.10;1.00
14769;DHT22;7476;49.404;11.152;2023-11-22T14:00:07;3.00;1.00
14769;DHT22;7476;49.404;11.152;2023-11-22T14:02:37;2.90;1.00
14769;DHT22;7476;49.404;11.152;2023-11-22T14:05:06;3.00;1.00
14769;DHT22;7476;49.404;11.152;2023-11-22T14:07:35;3.00;1.00
14769;DHT22;7476;49.404;11.152;2023-11-22T14:10:03;2.90;1.00
14769;DHT22;7476;49.404;11.152;2023-11-22T14:12:30;2.90;1.00
14769;DHT22;7476;49.404;11.152;2023-11-22T14:14:57;2.80;1.00
14769;DHT22;7476;49.404;11.152;2023-11-22T14:17:24;2.80;1.00
14769;DHT22;7476;49.404;11.152;2023-11-22T14:19:51;2.80;1.00
14769;DHT22;7476;49.404;11.152;2023-11-22T14:22:18;2.80;1.00
14769;DHT22;7476;49.404;11.152;2023-11-22T14:24:47;2.80;1.00
14769;DHT22;7476;49.404;11.152;2023-11-22T14:27:14;2.80;1.00
14769;DHT22;7476;49.404;11.152;2023-11-22T14:29:41;2.70;1.00
14769;DHT22;7476;49.404;11.152;2023-11-22T14:32:08;2.70;1.00
14769;DHT22;7476;49.404;11.152;2023-11-22T14:34:35;2.70;1.00
14769;DHT22;7476;49.404;11.152;2023-11-22T14:37:02;2.70;1.00
14769;DHT22;7476;49.404;11.152;2023-11-22T14:39:29;2.70;1.00
14769;DHT22;7476;49.404;11.152;2023-11-22T14:41:57;2.70;1.00
14769;DHT22;7476;49.404;11.152;2023-11-22T14:44:23;2.70;1.00
14769;DHT22;7476;49.404;11.152;2023-11-22T14:46:50;2.60;1.00
14769;DHT22;7476;49.404;11.152;2023-11-22T14:49:17;2.50;1.00
14769;DHT22;7476;49.404;11.152;2023-11-22T14:51:44;2.50;1.00
14769;DHT22;7476;49.404;11.152;2023-11-22T14:54:11;2.50;1.00
14769;DHT22;7476;49.404;11.152;2023-11-22T14:56:38;2.50;1.00
14769;DHT22;7476;49.404;11.152;2023-11-22T14:59:07;2.50;1.00
14769;DHT22;7476;49.404;11.152;2023-11-22T15:01:34;2.40;1.00
14769;DHT22;7476;49.404;11.152;2023-11-22T15:04:00;2.40;1.00
14769;DHT22;7476;49.404;11.152;2023-11-22T15:06:27;2.40;1.00
14769;DHT22;7476;49.404;11.152;2023-11-22T15:08:54;2.40;1.00
14769;DHT22;7476;49.404;11.152;2023-11-22T15:11:22;2.40;1.00
14769;DHT22;7476;49.404;11.152;2023-11-22T15:13:49;2.30;1.00
14769;DHT22;7476;49.404;11.152;2023-11-22T15:16:17;2.30;1.00
14769;DHT22;7476;49.404;11.152;2023-11-22T15:18:44;2.30;1.00
14769;DHT22;7476;49.404;11.152;2023-11-22T15:21:11;2.30;1.00
14769;DHT22;7476;49.404;11.152;2023-11-22T15:23:39;2.20;1.00
14769;DHT22;7476;49.404;11.152;2023-11-22T15:26:05;2.20;1.00
14769;DHT22;7476;49.404;11.152;2023-11-22T15:28:32;2.10;1.00
14769;DHT22;7476;49.404;11.152;2023-11-22T15:30:59;2.10;1.00
14769;DHT22;7476;49.404;11.152;2023-11-22T15:33:27;2.10;1.00
14769;DHT22;7476;49.404;11.152;2023-11-22T15:35:54;2.10;1.00
14769;DHT22;7476;49.404;11.152;2023-11-22T15:38:21;2.10;1.00
14769;DHT22;7476;49.404;11.152;2023-11-22T15:40:48;2.10;1.00
14769;DHT22;7476;49.404;11.152;2023-11-22T15:43:15;2.10;1.00
14769;DHT22;7476;49.404;11.152;2023-11-22T15:45:42;2.10;1.00
14769;DHT22;7476;49.404;11.152;2023-11-22T15:48:08;2.10;1.00
14769;DHT22;7476;49.404;11.152;2023-11-22T15:50:39;2.10;1.00
14769;DHT22;7476;49.404;11.152;2023-11-22T15:53:06;2.00;1.00
14769;DHT22;7476;49.404;11.152;2023-11-22T15:55:38;2.00;1.00
14769;DHT22;7476;49.404;11.152;2023-11-22T15:58:05;2.00;1.00
14769;DHT22;7476;49.404;11.152;2023-11-22T16:00:32;2.00;1.00
14769;DHT22;7476;49.404;11.152;2023-11-22T16:02:59;2.10;1.00